sensor_id;sensor_type;location;lat;lon;timestamp;pressure;altitude;pressure_sealevel;temperature;humidity
70916;BME280;58557;50.982;-3.222;2023-01-30T00:00:09;101735.05;;;8.86;72.21
70916;BME280;58557;50.982;-3.222;2023-01-30T00:02:33;101732.90;;;8.38;71.58
70916;BME280;58557;50.982;-3.222;2023-01-30T00:04:59;101736.27;;;8.47;74.00
70916;BME280;58557;50.982;-3.222;2023-01-30T00:07:24;101737.96;;;8.35;75.57
70916;BME280;58557;50.982;-3.222;2023-01-30T00:09:50;101735.55;;;8.05;74.44
70916;BME280;58557;50.982;-3.222;2023-01-30T00:12:15;101740.53;;;8.64;72.07
70916;BME280;58557;50.982;-3.222;2023-01-30T00:14:40;101734.76;;;8.38;72.92
70916;BME280;58557;50.982;-3.222;2023-01-30T00:17:06;101732.26;;;8.30;73.44
70916;BME280;58557;50.982;-3.222;2023-01-30T00:19:31;101732.13;;;8.05;77.98
70916;BME280;58557;50.982;-3.222;2023-01-30T00:22:02;101732.68;;;7.50;78.46
70916;BME280;58557;50.982;-3.222;2023-01-30T00:24:27;101727.25;;;7.81;77.72
70916;BME280;58557;50.982;-3.222;2023-01-30T00:26:47;101721.89;;;8.38;76.44
70916;BME280;58557;50.982;-3.222;2023-01-30T00:29:13;101721.79;;;7.83;79.58
70916;BME280;58557;50.982;-3.222;2023-01-30T00:31:44;101721.99;;;7.49;82.01
70916;BME280;58557;50.982;-3.222;2023-01-30T00:34:05;101721.28;;;7.51;82.82
70916;BME280;58557;50.982;-3.222;2023-01-30T00:36:35;101719.58;;;7.06;82.64
70916;BME280;58557;50.982;-3.222;2023-01-30T00:38:56;101718.03;;;8.42;78.98
70916;BME280;58557;50.982;-3.222;2023-01-30T00:41:21;101716.77;;;8.32;78.35
70916;BME280;58557;50.982;-3.222;2023-01-30T00:43:51;101717.36;;;7.93;78.16
70916;BME280;58557;50.982;-3.222;2023-01-30T00:46:23;101716.49;;;7.96;79.48
70916;BME280;58557;50.982;-3.222;2023-01-30T00:48:42;101720.91;;;8.14;80.09
70916;BME280;58557;50.982;-3.222;2023-01-30T00:51:03;101713.73;;;8.56;78.09
70916;BME280;58557;50.982;-3.222;2023-01-30T00:53:28;101710.30;;;8.43;77.70
70916;BME280;58557;50.982;-3.222;2023-01-30T00:55:59;101703.31;;;7.50;80.17
70916;BME280;58557;50.982;-3.222;2023-01-30T00:58:25;101702.19;;;8.16;81.53
70916;BME280;58557;50.982;-3.222;2023-01-30T01:00:45;101693.46;;;8.40;78.15
70916;BME280;58557;50.982;-3.222;2023-01-30T01:03:10;101683.38;;;8.62;74.98
70916;BME280;58557;50.982;-3.222;2023-01-30T01:05:42;101674.90;;;8.27;78.24
70916;BME280;58557;50.982;-3.222;2023-01-30T01:08:02;101674.90;;;7.41;83.88
70916;BME280;58557;50.982;-3.222;2023-01-30T01:10:27;101675.76;;;8.40;77.87
70916;BME280;58557;50.982;-3.222;2023-01-30T01:12:54;101679.71;;;8.68;78.32
70916;BME280;58557;50.982;-3.222;2023-01-30T01:15:24;101683.74;;;7.22;82.11
70916;BME280;58557;50.982;-3.222;2023-01-30T01:17:45;101679.40;;;7.65;81.26
70916;BME280;58557;50.982;-3.222;2023-01-30T01:20:10;101670.15;;;8.21;78.17
70916;BME280;58557;50.982;-3.222;2023-01-30T01:22:40;101666.12;;;8.55;77.59
70916;BME280;58557;50.982;-3.222;2023-01-30T01:25:00;101665.55;;;8.61;78.74
70916;BME280;58557;50.982;-3.222;2023-01-30T01:27:25;101665.94;;;7.61;82.40
70916;BME280;58557;50.982;-3.222;2023-01-30T01:29:51;101665.57;;;7.37;84.34
70916;BME280;58557;50.982;-3.222;2023-01-30T01:32:16;101662.29;;;7.74;85.40
70916;BME280;58557;50.982;-3.222;2023-01-30T01:34:41;101665.62;;;7.41;84.43
70916;BME280;58557;50.982;-3.222;2023-01-30T01:37:12;101660.29;;;8.49;80.49
70916;BME280;58557;50.982;-3.222;2023-01-30T01:39:38;101660.91;;;7.82;80.95
70916;BME280;58557;50.982;-3.222;2023-01-30T01:42:04;101661.84;;;8.24;79.80
70916;BME280;58557;50.982;-3.222;2023-01-30T01:44:24;101664.09;;;8.93;76.39
70916;BME280;58557;50.982;-3.222;2023-01-30T01:46:51;101662.41;;;7.85;81.11
70916;BME280;58557;50.982;-3.222;2023-01-30T01:49:21;101659.90;;;7.68;82.03
70916;BME280;58557;50.982;-3.222;2023-01-30T01:51:44;101667.89;;;8.99;78.42
70916;BME280;58557;50.982;-3.222;2023-01-30T01:54:08;101666.24;;;8.06;82.62
70916;BME280;58557;50.982;-3.222;2023-01-30T01:56:32;101665.34;;;7.40;83.04
70916;BME280;58557;50.982;-3.222;2023-01-30T01:59:04;101662.09;;;7.92;83.73
70916;BME280;58557;50.982;-3.222;2023-01-30T02:01:22;101653.01;;;8.33;82.37
70916;BME280;58557;50.982;-3.222;2023-01-30T02:03:52;101657.01;;;8.94;79.63
70916;BME280;58557;50.982;-3.222;2023-01-30T02:06:19;101662.94;;;9.53;75.94
70916;BME280;58557;50.982;-3.222;2023-01-30T02:08:42;101668.13;;;9.07;80.43
70916;BME280;58557;50.982;-3.222;2023-01-30T02:11:09;101668.56;;;9.32;75.52
70916;BME280;58557;50.982;-3.222;2023-01-30T02:13:35;101675.06;;;10.19;75.20
70916;BME280;58557;50.982;-3.222;2023-01-30T02:15:59;101672.52;;;9.68;78.84
70916;BME280;58557;50.982;-3.222;2023-01-30T02:18:22;101659.19;;;8.12;82.11
70916;BME280;58557;50.982;-3.222;2023-01-30T02:21:06;101660.32;;;9.88;75.74
70916;BME280;58557;50.982;-3.222;2023-01-30T02:23:30;101662.16;;;9.49;77.26
70916;BME280;58557;50.982;-3.222;2023-01-30T02:30:42;101663.24;;;10.03;71.71
70916;BME280;58557;50.982;-3.222;2023-01-30T02:33:05;101656.37;;;10.82;70.08
70916;BME280;58557;50.982;-3.222;2023-01-30T02:35:27;101653.52;;;10.81;69.44
70916;BME280;58557;50.982;-3.222;2023-01-30T02:37:56;101663.88;;;9.94;71.99
70916;BME280;58557;50.982;-3.222;2023-01-30T02:40:20;101660.09;;;9.68;72.09
70916;BME280;58557;50.982;-3.222;2023-01-30T02:42:38;101663.43;;;9.62;72.96
70916;BME280;58557;50.982;-3.222;2023-01-30T02:45:09;101657.50;;;10.47;72.41
70916;BME280;58557;50.982;-3.222;2023-01-30T02:47:29;101652.64;;;10.47;69.44
70916;BME280;58557;50.982;-3.222;2023-01-30T02:49:59;101653.91;;;11.17;68.57
70916;BME280;58557;50.982;-3.222;2023-01-30T02:52:18;101652.70;;;10.67;69.84
70916;BME280;58557;50.982;-3.222;2023-01-30T02:54:43;101651.10;;;9.99;71.13
70916;BME280;58557;50.982;-3.222;2023-01-30T02:57:18;101656.33;;;10.95;68.79
70916;BME280;58557;50.982;-3.222;2023-01-30T02:59:42;101655.23;;;11.07;65.91
70916;BME280;58557;50.982;-3.222;2023-01-30T03:02:13;101654.61;;;11.76;62.53
70916;BME280;58557;50.982;-3.222;2023-01-30T03:04:31;101652.07;;;11.96;63.32
70916;BME280;58557;50.982;-3.222;2023-01-30T03:07:05;101652.93;;;10.80;66.46
70916;BME280;58557;50.982;-3.222;2023-01-30T03:09:24;101643.10;;;12.64;60.66
70916;BME280;58557;50.982;-3.222;2023-01-30T03:11:46;101645.41;;;12.81;58.59
70916;BME280;58557;50.982;-3.222;2023-01-30T03:14:13;101647.86;;;12.11;59.52
70916;BME280;58557;50.982;-3.222;2023-01-30T03:16:36;101656.68;;;11.60;60.31
70916;BME280;58557;50.982;-3.222;2023-01-30T03:18:59;101653.77;;;10.95;63.45
70916;BME280;58557;50.982;-3.222;2023-01-30T03:21:28;101657.39;;;10.32;64.97
70916;BME280;58557;50.982;-3.222;2023-01-30T03:23:49;101657.92;;;11.52;61.81
70916;BME280;58557;50.982;-3.222;2023-01-30T03:26:18;101660.92;;;11.69;59.06
70916;BME280;58557;50.982;-3.222;2023-01-30T03:28:45;101667.61;;;10.95;63.90
70916;BME280;58557;50.982;-3.222;2023-01-30T03:31:09;101668.08;;;9.72;67.22
70916;BME280;58557;50.982;-3.222;2023-01-30T03:33:30;101667.86;;;10.78;66.25
70916;BME280;58557;50.982;-3.222;2023-01-30T03:35:56;101667.46;;;8.77;71.86
70916;BME280;58557;50.982;-3.222;2023-01-30T03:38:27;101666.69;;;9.73;67.48
70916;BME280;58557;50.982;-3.222;2023-01-30T03:40:47;101662.60;;;10.59;64.89
70916;BME280;58557;50.982;-3.222;2023-01-30T03:43:12;101669.96;;;10.13;66.87
70916;BME280;58557;50.982;-3.222;2023-01-30T03:45:37;101669.78;;;10.83;64.49
70916;BME280;58557;50.982;-3.222;2023-01-30T03:48:03;101672.22;;;9.73;67.40
70916;BME280;58557;50.982;-3.222;2023-01-30T03:50:28;101665.01;;;10.12;64.60
70916;BME280;58557;50.982;-3.222;2023-01-30T03:52:59;101672.80;;;10.29;65.06
70916;BME280;58557;50.982;-3.222;2023-01-30T03:55:20;101675.21;;;10.51;64.15
70916;BME280;58557;50.982;-3.222;2023-01-30T03:57:46;101685.07;;;9.79;66.69
70916;BME280;58557;50.982;-3.222;2023-01-30T04:00:12;101694.29;;;10.09;64.80
70916;BME280;58557;50.982;-3.222;2023-01-30T04:02:36;101693.38;;;10.41;65.20
70916;BME280;58557;50.982;-3.222;2023-01-30T04:05:01;101696.37;;;9.73;66.92
70916;BME280;58557;50.982;-3.222;2023-01-30T04:07:29;101694.66;;;10.36;65.47
70916;BME280;58557;50.982;-3.222;2023-01-30T04:09:53;101701.75;;;10.37;63.63
70916;BME280;58557;50.982;-3.222;2023-01-30T04:12:18;101697.46;;;10.83;63.16
70916;BME280;58557;50.982;-3.222;2023-01-30T04:14:43;101702.44;;;11.32;62.35
70916;BME280;58557;50.982;-3.222;2023-01-30T04:17:14;101709.68;;;9.86;66.13
70916;BME280;58557;50.982;-3.222;2023-01-30T04:19:40;101710.33;;;8.98;67.78
70916;BME280;58557;50.982;-3.222;2023-01-30T04:22:00;101711.92;;;10.36;63.97
70916;BME280;58557;50.982;-3.222;2023-01-30T04:24:25;101711.68;;;10.38;63.03
70916;BME280;58557;50.982;-3.222;2023-01-30T04:26:51;101714.05;;;9.09;67.37
70916;BME280;58557;50.982;-3.222;2023-01-30T04:29:16;101716.45;;;9.19;68.59
70916;BME280;58557;50.982;-3.222;2023-01-30T04:31:42;101724.41;;;9.33;67.01
70916;BME280;58557;50.982;-3.222;2023-01-30T04:34:12;101723.57;;;9.21;66.98
70916;BME280;58557;50.982;-3.222;2023-01-30T04:36:32;101727.02;;;9.91;64.96
70916;BME280;58557;50.982;-3.222;2023-01-30T04:39:03;101731.90;;;9.10;67.11
70916;BME280;58557;50.982;-3.222;2023-01-30T04:41:23;101737.27;;;8.84;66.44
70916;BME280;58557;50.982;-3.222;2023-01-30T04:43:48;101742.68;;;7.97;69.18
70916;BME280;58557;50.982;-3.222;2023-01-30T04:46:14;101743.93;;;7.95;69.82
70916;BME280;58557;50.982;-3.222;2023-01-30T04:48:40;101745.66;;;8.38;67.13
70916;BME280;58557;50.982;-3.222;2023-01-30T04:51:06;101757.05;;;7.98;69.59
70916;BME280;58557;50.982;-3.222;2023-01-30T04:53:31;101767.04;;;8.04;69.20
70916;BME280;58557;50.982;-3.222;2023-01-30T04:56:01;101776.52;;;8.65;66.72
70916;BME280;58557;50.982;-3.222;2023-01-30T04:58:24;101778.57;;;8.21;66.83
70916;BME280;58557;50.982;-3.222;2023-01-30T05:00:48;101773.22;;;7.92;67.73
70916;BME280;58557;50.982;-3.222;2023-01-30T05:03:13;101777.89;;;7.43;68.03
70916;BME280;58557;50.982;-3.222;2023-01-30T05:05:39;101778.19;;;8.09;67.19
70916;BME280;58557;50.982;-3.222;2023-01-30T05:08:05;101778.68;;;7.82;67.04
70916;BME280;58557;50.982;-3.222;2023-01-30T05:10:35;101772.62;;;7.10;69.01
70916;BME280;58557;50.982;-3.222;2023-01-30T05:12:55;101776.39;;;6.47;71.65
70916;BME280;58557;50.982;-3.222;2023-01-30T05:15:25;101775.37;;;6.49;71.62
70916;BME280;58557;50.982;-3.222;2023-01-30T05:17:46;101784.66;;;6.30;74.17
70916;BME280;58557;50.982;-3.222;2023-01-30T05:20:12;101785.51;;;6.87;70.55
70916;BME280;58557;50.982;-3.222;2023-01-30T05:22:43;101786.36;;;6.08;71.01
70916;BME280;58557;50.982;-3.222;2023-01-30T05:25:09;101790.23;;;6.33;69.95
70916;BME280;58557;50.982;-3.222;2023-01-30T05:27:33;101801.17;;;6.48;70.30
70916;BME280;58557;50.982;-3.222;2023-01-30T05:29:54;101799.60;;;6.11;71.90
70916;BME280;58557;50.982;-3.222;2023-01-30T05:32:24;101795.92;;;6.24;72.23
70916;BME280;58557;50.982;-3.222;2023-01-30T05:34:49;101805.77;;;5.77;72.06
70916;BME280;58557;50.982;-3.222;2023-01-30T05:37:10;101805.01;;;5.50;74.26
70916;BME280;58557;50.982;-3.222;2023-01-30T05:39:35;101807.99;;;5.27;74.73
70916;BME280;58557;50.982;-3.222;2023-01-30T05:42:01;101814.20;;;5.54;72.10
70916;BME280;58557;50.982;-3.222;2023-01-30T05:44:31;101818.67;;;5.24;72.57
70916;BME280;58557;50.982;-3.222;2023-01-30T05:46:57;101818.86;;;4.92;72.35
70916;BME280;58557;50.982;-3.222;2023-01-30T05:49:17;101823.40;;;5.85;69.88
70916;BME280;58557;50.982;-3.222;2023-01-30T05:51:43;101825.51;;;5.34;70.56
70916;BME280;58557;50.982;-3.222;2023-01-30T05:54:08;101825.34;;;4.84;72.20
70916;BME280;58557;50.982;-3.222;2023-01-30T05:56:34;101827.11;;;5.11;72.04
70916;BME280;58557;50.982;-3.222;2023-01-30T05:59:00;101830.40;;;5.77;69.22
70916;BME280;58557;50.982;-3.222;2023-01-30T06:01:26;101831.71;;;5.91;68.19
70916;BME280;58557;50.982;-3.222;2023-01-30T06:03:51;101834.52;;;5.70;68.21
70916;BME280;58557;50.982;-3.222;2023-01-30T06:06:21;101839.73;;;5.42;68.64
70916;BME280;58557;50.982;-3.222;2023-01-30T06:08:41;101846.49;;;5.27;68.41
70916;BME280;58557;50.982;-3.222;2023-01-30T06:11:13;101860.07;;;5.72;66.17
70916;BME280;58557;50.982;-3.222;2023-01-30T06:13:32;101869.80;;;5.70;66.10
70916;BME280;58557;50.982;-3.222;2023-01-30T06:16:03;101873.63;;;5.03;65.46
70916;BME280;58557;50.982;-3.222;2023-01-30T06:18:23;101884.38;;;5.57;65.40
70916;BME280;58557;50.982;-3.222;2023-01-30T06:20:50;101884.68;;;5.57;64.21
70916;BME280;58557;50.982;-3.222;2023-01-30T06:23:14;101877.64;;;6.18;62.72
70916;BME280;58557;50.982;-3.222;2023-01-30T06:25:43;101872.09;;;7.46;58.34
70916;BME280;58557;50.982;-3.222;2023-01-30T06:28:09;101876.77;;;7.18;58.14
70916;BME280;58557;50.982;-3.222;2023-01-30T06:30:34;101882.80;;;7.67;56.38
70916;BME280;58557;50.982;-3.222;2023-01-30T06:32:54;101877.07;;;7.56;57.31
70916;BME280;58557;50.982;-3.222;2023-01-30T06:35:20;101882.42;;;7.20;55.97
70916;BME280;58557;50.982;-3.222;2023-01-30T06:37:45;101887.68;;;6.98;55.96
70916;BME280;58557;50.982;-3.222;2023-01-30T06:40:12;101895.12;;;7.66;53.98
70916;BME280;58557;50.982;-3.222;2023-01-30T06:42:45;101910.22;;;7.02;54.10
70916;BME280;58557;50.982;-3.222;2023-01-30T06:45:06;101922.08;;;8.11;51.86
70916;BME280;58557;50.982;-3.222;2023-01-30T06:47:26;101922.76;;;9.27;50.15
70916;BME280;58557;50.982;-3.222;2023-01-30T06:49:56;101917.96;;;8.05;50.38
70916;BME280;58557;50.982;-3.222;2023-01-30T06:52:16;101916.64;;;7.31;51.22
70916;BME280;58557;50.982;-3.222;2023-01-30T06:54:43;101922.11;;;7.73;51.62
70916;BME280;58557;50.982;-3.222;2023-01-30T06:57:06;101923.24;;;5.91;54.08
70916;BME280;58557;50.982;-3.222;2023-01-30T06:59:32;101921.19;;;6.89;53.86
70916;BME280;58557;50.982;-3.222;2023-01-30T07:01:57;101913.02;;;8.31;50.42
70916;BME280;58557;50.982;-3.222;2023-01-30T07:04:22;101916.48;;;8.89;48.57
70916;BME280;58557;50.982;-3.222;2023-01-30T07:06:48;101929.78;;;9.25;47.34
70916;BME280;58557;50.982;-3.222;2023-01-30T07:09:18;101935.04;;;9.53;45.26
70916;BME280;58557;50.982;-3.222;2023-01-30T07:11:38;101937.27;;;9.72;45.00
70916;BME280;58557;50.982;-3.222;2023-01-30T07:14:09;101943.52;;;10.07;45.11
70916;BME280;58557;50.982;-3.222;2023-01-30T07:16:28;101950.13;;;9.38;45.99
70916;BME280;58557;50.982;-3.222;2023-01-30T07:18:54;101959.60;;;9.42;44.29
70916;BME280;58557;50.982;-3.222;2023-01-30T07:21:19;101960.45;;;8.54;45.83
70916;BME280;58557;50.982;-3.222;2023-01-30T07:23:46;101961.48;;;9.16;45.40
70916;BME280;58557;50.982;-3.222;2023-01-30T07:26:09;101960.48;;;8.84;45.54
70916;BME280;58557;50.982;-3.222;2023-01-30T07:28:41;101960.19;;;9.80;44.79
70916;BME280;58557;50.982;-3.222;2023-01-30T07:31:05;101960.75;;;10.37;43.12
70916;BME280;58557;50.982;-3.222;2023-01-30T07:33:31;101967.06;;;10.11;43.85
70916;BME280;58557;50.982;-3.222;2023-01-30T07:35:53;101971.75;;;9.68;43.70
70916;BME280;58557;50.982;-3.222;2023-01-30T07:38:22;101978.99;;;7.32;47.15
70916;BME280;58557;50.982;-3.222;2023-01-30T07:40:42;101981.58;;;8.31;45.76
70916;BME280;58557;50.982;-3.222;2023-01-30T07:43:13;101983.27;;;7.51;46.87
70916;BME280;58557;50.982;-3.222;2023-01-30T07:45:41;101985.55;;;8.95;45.35
70916;BME280;58557;50.982;-3.222;2023-01-30T07:47:58;101993.13;;;7.13;48.19
70916;BME280;58557;50.982;-3.222;2023-01-30T07:50:23;101987.83;;;7.43;47.33
70916;BME280;58557;50.982;-3.222;2023-01-30T07:52:48;101993.62;;;8.53;46.61
70916;BME280;58557;50.982;-3.222;2023-01-30T07:55:14;101995.57;;;9.19;44.59
70916;BME280;58557;50.982;-3.222;2023-01-30T07:57:39;102001.42;;;9.12;44.25
70916;BME280;58557;50.982;-3.222;2023-01-30T08:00:07;102000.78;;;8.99;44.79
70916;BME280;58557;50.982;-3.222;2023-01-30T08:02:29;102007.81;;;9.37;44.32
70916;BME280;58557;50.982;-3.222;2023-01-30T08:04:55;102015.78;;;9.88;43.21
70916;BME280;58557;50.982;-3.222;2023-01-30T08:07:20;102014.05;;;9.57;44.45
70916;BME280;58557;50.982;-3.222;2023-01-30T08:09:50;102002.46;;;9.90;43.90
70916;BME280;58557;50.982;-3.222;2023-01-30T08:12:11;102003.99;;;10.17;43.34
70916;BME280;58557;50.982;-3.222;2023-01-30T08:14:41;102004.53;;;10.28;42.32
70916;BME280;58557;50.982;-3.222;2023-01-30T08:17:02;102013.79;;;10.57;42.43
70916;BME280;58557;50.982;-3.222;2023-01-30T08:19:32;102019.98;;;10.54;43.03
70916;BME280;58557;50.982;-3.222;2023-01-30T08:21:52;102020.86;;;10.55;42.81
70916;BME280;58557;50.982;-3.222;2023-01-30T08:24:19;102024.21;;;10.27;43.07
70916;BME280;58557;50.982;-3.222;2023-01-30T08:26:43;102032.09;;;9.66;43.73
70916;BME280;58557;50.982;-3.222;2023-01-30T08:29:08;102032.51;;;10.72;43.32
70916;BME280;58557;50.982;-3.222;2023-01-30T08:31:38;102019.47;;;11.00;42.75
70916;BME280;58557;50.982;-3.222;2023-01-30T08:33:59;102022.38;;;10.68;42.52
70916;BME280;58557;50.982;-3.222;2023-01-30T08:36:24;102018.67;;;9.73;43.03
70916;BME280;58557;50.982;-3.222;2023-01-30T08:38:54;102024.54;;;9.83;43.66
70916;BME280;58557;50.982;-3.222;2023-01-30T08:41:20;102022.64;;;11.25;41.62
70916;BME280;58557;50.982;-3.222;2023-01-30T08:43:40;102025.21;;;11.75;40.08
70916;BME280;58557;50.982;-3.222;2023-01-30T08:46:05;102028.31;;;10.48;41.28
70916;BME280;58557;50.982;-3.222;2023-01-30T08:48:32;102033.79;;;11.12;42.14
70916;BME280;58557;50.982;-3.222;2023-01-30T08:51:01;102040.97;;;11.63;40.39
70916;BME280;58557;50.982;-3.222;2023-01-30T08:53:22;102041.34;;;11.30;41.52
70916;BME280;58557;50.982;-3.222;2023-01-30T08:55:49;102043.91;;;10.82;41.94
70916;BME280;58557;50.982;-3.222;2023-01-30T08:58:12;102051.88;;;11.64;40.71
70916;BME280;58557;50.982;-3.222;2023-01-30T09:00:38;102057.03;;;12.10;39.18
70916;BME280;58557;50.982;-3.222;2023-01-30T09:03:03;102052.64;;;11.21;41.66
70916;BME280;58557;50.982;-3.222;2023-01-30T09:05:29;102047.62;;;10.31;42.82
70916;BME280;58557;50.982;-3.222;2023-01-30T09:07:55;102052.40;;;11.43;40.25
70916;BME280;58557;50.982;-3.222;2023-01-30T09:10:20;102055.49;;;11.03;41.26
70916;BME280;58557;50.982;-3.222;2023-01-30T09:12:51;102058.42;;;11.44;40.86
70916;BME280;58557;50.982;-3.222;2023-01-30T09:15:17;102063.43;;;11.18;41.10
70916;BME280;58557;50.982;-3.222;2023-01-30T09:17:37;102067.50;;;11.36;41.15
70916;BME280;58557;50.982;-3.222;2023-01-30T09:20:04;102073.05;;;9.67;44.12
70916;BME280;58557;50.982;-3.222;2023-01-30T09:22:28;102077.67;;;11.06;41.27
70916;BME280;58557;50.982;-3.222;2023-01-30T09:24:53;102078.85;;;11.18;40.90
70916;BME280;58557;50.982;-3.222;2023-01-30T09:27:18;102074.20;;;10.84;41.28
70916;BME280;58557;50.982;-3.222;2023-01-30T09:29:49;102081.57;;;11.89;40.75
70916;BME280;58557;50.982;-3.222;2023-01-30T09:32:09;102083.68;;;9.67;42.27
70916;BME280;58557;50.982;-3.222;2023-01-30T09:34:35;102083.90;;;10.61;41.27
70916;BME280;58557;50.982;-3.222;2023-01-30T09:37:06;102092.11;;;10.06;42.36
70916;BME280;58557;50.982;-3.222;2023-01-30T09:39:27;102102.59;;;10.46;43.47
70916;BME280;58557;50.982;-3.222;2023-01-30T09:42:04;102106.65;;;10.80;43.04
70916;BME280;58557;50.982;-3.222;2023-01-30T09:46:47;102111.11;;;10.46;42.21
70916;BME280;58557;50.982;-3.222;2023-01-30T09:49:18;102109.53;;;9.96;43.50
70916;BME280;58557;50.982;-3.222;2023-01-30T09:51:51;102109.66;;;10.06;43.91
70916;BME280;58557;50.982;-3.222;2023-01-30T09:54:12;102110.00;;;9.60;44.88
70916;BME280;58557;50.982;-3.222;2023-01-30T09:56:24;102107.10;;;10.29;44.32
70916;BME280;58557;50.982;-3.222;2023-01-30T09:58:57;102106.49;;;9.64;44.59
70916;BME280;58557;50.982;-3.222;2023-01-30T10:01:20;102117.31;;;10.76;44.40
70916;BME280;58557;50.982;-3.222;2023-01-30T10:03:52;102123.18;;;10.63;44.12
70916;BME280;58557;50.982;-3.222;2023-01-30T10:06:12;102127.20;;;11.52;42.17
70916;BME280;58557;50.982;-3.222;2023-01-30T10:08:45;102129.87;;;10.46;43.27
70916;BME280;58557;50.982;-3.222;2023-01-30T10:11:02;102130.26;;;10.68;43.05
70916;BME280;58557;50.982;-3.222;2023-01-30T10:13:34;102129.07;;;10.23;44.19
70916;BME280;58557;50.982;-3.222;2023-01-30T10:15:52;102139.32;;;9.42;45.83
70916;BME280;58557;50.982;-3.222;2023-01-30T10:18:32;102141.95;;;9.98;45.08
70916;BME280;58557;50.982;-3.222;2023-01-30T10:20:47;102142.76;;;10.91;43.83
70916;BME280;58557;50.982;-3.222;2023-01-30T10:23:21;102150.54;;;10.24;44.56
70916;BME280;58557;50.982;-3.222;2023-01-30T10:25:33;102153.92;;;9.31;45.89
70916;BME280;58557;50.982;-3.222;2023-01-30T10:28:05;102154.92;;;9.60;46.35
70916;BME280;58557;50.982;-3.222;2023-01-30T10:30:21;102154.39;;;11.28;43.96
70916;BME280;58557;50.982;-3.222;2023-01-30T10:32:54;102158.61;;;11.47;43.85
70916;BME280;58557;50.982;-3.222;2023-01-30T10:35:16;102161.34;;;10.01;46.14
70916;BME280;58557;50.982;-3.222;2023-01-30T10:37:47;102161.21;;;10.92;45.82
70916;BME280;58557;50.982;-3.222;2023-01-30T10:40:06;102162.34;;;11.03;44.51
70916;BME280;58557;50.982;-3.222;2023-01-30T10:42:35;102165.67;;;9.67;46.57
70916;BME280;58557;50.982;-3.222;2023-01-30T10:44:59;102156.28;;;9.64;46.26
70916;BME280;58557;50.982;-3.222;2023-01-30T10:47:33;102156.61;;;9.55;48.05
70916;BME280;58557;50.982;-3.222;2023-01-30T10:49:51;102156.16;;;10.10;47.09
70916;BME280;58557;50.982;-3.222;2023-01-30T10:52:21;102165.66;;;10.55;45.32
70916;BME280;58557;50.982;-3.222;2023-01-30T10:54:41;102173.49;;;9.21;47.29
70916;BME280;58557;50.982;-3.222;2023-01-30T10:57:16;102176.48;;;10.74;45.75
70916;BME280;58557;50.982;-3.222;2023-01-30T10:59:38;102173.10;;;10.44;46.55
70916;BME280;58557;50.982;-3.222;2023-01-30T11:01:59;102169.58;;;10.10;46.26
70916;BME280;58557;50.982;-3.222;2023-01-30T11:04:25;102164.99;;;10.34;46.90
70916;BME280;58557;50.982;-3.222;2023-01-30T11:06:43;102166.97;;;10.74;46.63
70916;BME280;58557;50.982;-3.222;2023-01-30T11:09:13;102169.09;;;10.16;46.80
70916;BME280;58557;50.982;-3.222;2023-01-30T11:11:47;102168.18;;;10.32;46.19
70916;BME280;58557;50.982;-3.222;2023-01-30T11:14:04;102167.06;;;9.92;47.86
70916;BME280;58557;50.982;-3.222;2023-01-30T11:16:27;102165.41;;;9.50;48.64
70916;BME280;58557;50.982;-3.222;2023-01-30T11:18:50;102166.21;;;10.64;45.71
70916;BME280;58557;50.982;-3.222;2023-01-30T11:21:21;102177.11;;;9.93;45.87
70916;BME280;58557;50.982;-3.222;2023-01-30T11:23:42;102177.60;;;10.41;45.70
70916;BME280;58557;50.982;-3.222;2023-01-30T11:26:15;102181.43;;;9.66;47.27
70916;BME280;58557;50.982;-3.222;2023-01-30T11:28:40;102180.66;;;10.05;46.60
70916;BME280;58557;50.982;-3.222;2023-01-30T11:31:03;102179.75;;;9.94;47.75
70916;BME280;58557;50.982;-3.222;2023-01-30T11:33:30;102182.87;;;9.06;50.75
70916;BME280;58557;50.982;-3.222;2023-01-30T11:35:55;102178.82;;;10.28;48.82
70916;BME280;58557;50.982;-3.222;2023-01-30T11:38:19;102174.89;;;10.12;48.40
70916;BME280;58557;50.982;-3.222;2023-01-30T11:40:44;102174.50;;;12.18;45.56
70916;BME280;58557;50.982;-3.222;2023-01-30T11:43:11;102172.04;;;11.84;44.43
70916;BME280;58557;50.982;-3.222;2023-01-30T11:45:36;102173.73;;;12.80;43.73
70916;BME280;58557;50.982;-3.222;2023-01-30T11:47:58;102174.93;;;12.95;43.26
70916;BME280;58557;50.982;-3.222;2023-01-30T11:50:24;102175.60;;;11.41;44.47
70916;BME280;58557;50.982;-3.222;2023-01-30T11:52:47;102177.66;;;10.72;45.87
70916;BME280;58557;50.982;-3.222;2023-01-30T11:55:15;102175.31;;;10.81;44.81
70916;BME280;58557;50.982;-3.222;2023-01-30T11:57:40;102174.91;;;12.20;43.13
70916;BME280;58557;50.982;-3.222;2023-01-30T12:00:11;102178.84;;;10.98;44.44
70916;BME280;58557;50.982;-3.222;2023-01-30T12:02:32;102176.87;;;11.78;42.78
70916;BME280;58557;50.982;-3.222;2023-01-30T12:04:59;102169.86;;;11.09;43.47
70916;BME280;58557;50.982;-3.222;2023-01-30T12:07:23;102172.80;;;7.92;48.91
70916;BME280;58557;50.982;-3.222;2023-01-30T12:09:53;102173.22;;;9.46;46.35
70916;BME280;58557;50.982;-3.222;2023-01-30T12:12:25;102168.63;;;9.17;47.58
70916;BME280;58557;50.982;-3.222;2023-01-30T12:14:40;102161.73;;;8.99;48.03
70916;BME280;58557;50.982;-3.222;2023-01-30T12:17:10;102161.60;;;9.22;48.24
70916;BME280;58557;50.982;-3.222;2023-01-30T12:19:40;102155.27;;;9.70;46.81
70916;BME280;58557;50.982;-3.222;2023-01-30T12:22:08;102159.82;;;10.49;45.89
70916;BME280;58557;50.982;-3.222;2023-01-30T12:24:30;102150.58;;;8.93;47.03
70916;BME280;58557;50.982;-3.222;2023-01-30T12:26:49;102143.29;;;9.88;46.48
70916;BME280;58557;50.982;-3.222;2023-01-30T12:29:21;102140.51;;;11.13;44.21
70916;BME280;58557;50.982;-3.222;2023-01-30T12:31:41;102138.95;;;10.17;44.20
70916;BME280;58557;50.982;-3.222;2023-01-30T12:34:02;102140.47;;;10.36;43.72
70916;BME280;58557;50.982;-3.222;2023-01-30T12:36:41;102136.99;;;9.59;43.98
70916;BME280;58557;50.982;-3.222;2023-01-30T12:38:56;102134.29;;;9.21;45.57
70916;BME280;58557;50.982;-3.222;2023-01-30T12:41:31;102129.60;;;9.01;46.15